sensor_id;sensor_type;location;lat;lon;timestamp;P1;durP1;ratioP1;P2;durP2;ratioP2
75090;SDS011;63674;48.048;8.306;2022-10-31T00:01:36;7.25;;;1.95;;
75090;SDS011;63674;48.048;8.306;2022-10-31T00:04:06;6.72;;;1.73;;
75090;SDS011;63674;48.048;8.306;2022-10-31T00:06:35;6.83;;;1.90;;
75090;SDS011;63674;48.048;8.306;2022-10-31T00:09:04;10.90;;;1.80;;
75090;SDS011;63674;48.048;8.306;2022-10-31T00:11:32;8.65;;;1.90;;
75090;SDS011;63674;48.048;8.306;2022-10-31T00:14:01;12.07;;;1.92;;
75090;SDS011;63674;48.048;8.306;2022-10-31T00:16:31;6.10;;;1.63;;
75090;SDS011;63674;48.048;8.306;2022-10-31T00:19:00;9.60;;;1.83;;
75090;SDS011;63674;48.048;8.306;2022-10-31T00:21:31;8.43;;;2.17;;
75090;SDS011;63674;48.048;8.306;2022-10-31T00:24:00;9.73;;;1.90;;
75090;SDS011;63674;48.048;8.306;2022-10-31T00:26:30;10.77;;;2.00;;
75090;SDS011;63674;48.048;8.306;2022-10-31T00:28:59;9.07;;;1.67;;
75090;SDS011;63674;48.048;8.306;2022-10-31T00:31:28;7.77;;;1.63;;
75090;SDS011;63674;48.048;8.306;2022-10-31T00:33:58;9.52;;;2.67;;
75090;SDS011;63674;48.048;8.306;2022-10-31T00:36:29;6.45;;;1.40;;
75090;SDS011;63674;48.048;8.306;2022-10-31T00:38:58;11.20;;;2.00;;
75090;SDS011;63674;48.048;8.306;2022-10-31T00:41:27;12.68;;;2.08;;
75090;SDS011;63674;48.048;8.306;2022-10-31T00:43:56;6.37;;;1.60;;
75090;SDS011;63674;48.048;8.306;2022-10-31T00:46:25;6.95;;;1.60;;
75090;SDS011;63674;48.048;8.306;2022-10-31T00:48:53;9.13;;;1.63;;
75090;SDS011;63674;48.048;8.306;2022-10-31T00:51:23;5.68;;;1.20;;
75090;SDS011;63674;48.048;8.306;2022-10-31T00:53:52;7.97;;;1.70;;
75090;SDS011;63674;48.048;8.306;2022-10-31T00:56:20;9.87;;;1.60;;
75090;SDS011;63674;48.048;8.306;2022-10-31T00:58:49;9.68;;;1.60;;
75090;SDS011;63674;48.048;8.306;2022-10-31T01:01:17;9.00;;;1.67;;
75090;SDS011;63674;48.048;8.306;2022-10-31T01:03:46;9.07;;;1.30;;
75090;SDS011;63674;48.048;8.306;2022-10-31T01:06:14;10.90;;;1.80;;
75090;SDS011;63674;48.048;8.306;2022-10-31T01:08:45;7.07;;;1.77;;
75090;SDS011;63674;48.048;8.306;2022-10-31T01:11:16;5.75;;;1.50;;
75090;SDS011;63674;48.048;8.306;2022-10-31T01:13:47;8.43;;;1.15;;
75090;SDS011;63674;48.048;8.306;2022-10-31T01:16:18;5.00;;;1.35;;
75090;SDS011;63674;48.048;8.306;2022-10-31T01:18:49;6.05;;;1.73;;
75090;SDS011;63674;48.048;8.306;2022-10-31T01:21:19;17.43;;;3.30;;
75090;SDS011;63674;48.048;8.306;2022-10-31T01:23:52;8.73;;;1.70;;
75090;SDS011;63674;48.048;8.306;2022-10-31T01:26:22;7.15;;;2.60;;
75090;SDS011;63674;48.048;8.306;2022-10-31T01:28:54;6.80;;;2.65;;
75090;SDS011;63674;48.048;8.306;2022-10-31T01:31:25;11.70;;;1.80;;
75090;SDS011;63674;48.048;8.306;2022-10-31T01:33:56;4.77;;;1.63;;
75090;SDS011;63674;48.048;8.306;2022-10-31T01:36:26;8.55;;;1.40;;
75090;SDS011;63674;48.048;8.306;2022-10-31T01:39:02;7.65;;;1.55;;
75090;SDS011;63674;48.048;8.306;2022-10-31T01:41:35;6.50;;;1.50;;
75090;SDS011;63674;48.048;8.306;2022-10-31T01:47:30;7.60;;;1.10;;
75090;SDS011;63674;48.048;8.306;2022-10-31T01:50:10;9.48;;;1.48;;
75090;SDS011;63674;48.048;8.306;2022-10-31T01:52:53;9.88;;;1.40;;
75090;SDS011;63674;48.048;8.306;2022-10-31T01:55:26;7.72;;;1.50;;
75090;SDS011;63674;48.048;8.306;2022-10-31T01:58:02;8.63;;;1.80;;
75090;SDS011;63674;48.048;8.306;2022-10-31T02:00:34;8.80;;;1.80;;
75090;SDS011;63674;48.048;8.306;2022-10-31T02:03:03;7.28;;;1.40;;
75090;SDS011;63674;48.048;8.306;2022-10-31T02:05:32;10.27;;;1.83;;
75090;SDS011;63674;48.048;8.306;2022-10-31T02:08:03;6.68;;;1.25;;
75090;SDS011;63674;48.048;8.306;2022-10-31T02:10:40;9.30;;;1.90;;
75090;SDS011;63674;48.048;8.306;2022-10-31T02:13:10;7.40;;;1.60;;
75090;SDS011;63674;48.048;8.306;2022-10-31T02:15:40;6.32;;;1.42;;
75090;SDS011;63674;48.048;8.306;2022-10-31T02:18:11;8.60;;;1.50;;
75090;SDS011;63674;48.048;8.306;2022-10-31T02:20:42;7.72;;;1.70;;
75090;SDS011;63674;48.048;8.306;2022-10-31T02:23:42;7.22;;;1.50;;
75090;SDS011;63674;48.048;8.306;2022-10-31T02:27:05;7.30;;;1.43;;
75090;SDS011;63674;48.048;8.306;2022-10-31T02:30:07;7.10;;;1.30;;
75090;SDS011;63674;48.048;8.306;2022-10-31T02:35:49;7.32;;;1.48;;
75090;SDS011;63674;48.048;8.306;2022-10-31T02:38:29;6.47;;;1.75;;
75090;SDS011;63674;48.048;8.306;2022-10-31T02:41:15;5.10;;;1.15;;
75090;SDS011;63674;48.048;8.306;2022-10-31T02:43:54;7.55;;;1.25;;
75090;SDS011;63674;48.048;8.306;2022-10-31T02:46:34;5.57;;;1.35;;
75090;SDS011;63674;48.048;8.306;2022-10-31T02:49:21;4.80;;;1.40;;
75090;SDS011;63674;48.048;8.306;2022-10-31T02:51:55;9.43;;;1.40;;
75090;SDS011;63674;48.048;8.306;2022-10-31T02:54:25;7.82;;;1.42;;
75090;SDS011;63674;48.048;8.306;2022-10-31T02:56:57;6.25;;;1.52;;
75090;SDS011;63674;48.048;8.306;2022-10-31T02:59:31;6.32;;;1.30;;
75090;SDS011;63674;48.048;8.306;2022-10-31T03:02:14;5.72;;;1.35;;
75090;SDS011;63674;48.048;8.306;2022-10-31T03:05:25;7.63;;;1.80;;
75090;SDS011;63674;48.048;8.306;2022-10-31T03:08:15;5.55;;;1.50;;
75090;SDS011;63674;48.048;8.306;2022-10-31T03:10:53;7.95;;;1.52;;
75090;SDS011;63674;48.048;8.306;2022-10-31T03:13:28;6.47;;;1.52;;
75090;SDS011;63674;48.048;8.306;2022-10-31T03:16:05;11.68;;;1.70;;
75090;SDS011;63674;48.048;8.306;2022-10-31T03:18:42;7.00;;;1.48;;
75090;SDS011;63674;48.048;8.306;2022-10-31T03:21:18;6.60;;;1.50;;
75090;SDS011;63674;48.048;8.306;2022-10-31T03:23:52;8.00;;;1.40;;
75090;SDS011;63674;48.048;8.306;2022-10-31T03:26:22;6.82;;;1.67;;
75090;SDS011;63674;48.048;8.306;2022-10-31T03:28:53;6.80;;;1.40;;
75090;SDS011;63674;48.048;8.306;2022-10-31T03:31:28;7.07;;;1.60;;
75090;SDS011;63674;48.048;8.306;2022-10-31T03:34:01;7.00;;;1.67;;
75090;SDS011;63674;48.048;8.306;2022-10-31T03:36:34;9.55;;;1.80;;
75090;SDS011;63674;48.048;8.306;2022-10-31T03:39:05;10.00;;;1.60;;
75090;SDS011;63674;48.048;8.306;2022-10-31T03:41:41;6.07;;;1.65;;
75090;SDS011;63674;48.048;8.306;2022-10-31T03:44:14;6.85;;;1.35;;
75090;SDS011;63674;48.048;8.306;2022-10-31T03:46:46;6.07;;;1.40;;
75090;SDS011;63674;48.048;8.306;2022-10-31T03:49:15;11.02;;;1.50;;
75090;SDS011;63674;48.048;8.306;2022-10-31T03:51:47;7.55;;;1.70;;
75090;SDS011;63674;48.048;8.306;2022-10-31T03:54:24;9.40;;;1.98;;
75090;SDS011;63674;48.048;8.306;2022-10-31T03:57:00;7.47;;;2.03;;
75090;SDS011;63674;48.048;8.306;2022-10-31T03:59:41;8.10;;;2.03;;
75090;SDS011;63674;48.048;8.306;2022-10-31T04:02:14;6.30;;;1.45;;
75090;SDS011;63674;48.048;8.306;2022-10-31T04:04:48;8.45;;;1.70;;
75090;SDS011;63674;48.048;8.306;2022-10-31T04:07:19;8.98;;;1.70;;
75090;SDS011;63674;48.048;8.306;2022-10-31T04:09:53;6.20;;;1.60;;
75090;SDS011;63674;48.048;8.306;2022-10-31T04:12:23;5.63;;;1.40;;
75090;SDS011;63674;48.048;8.306;2022-10-31T04:14:53;10.68;;;1.85;;
75090;SDS011;63674;48.048;8.306;2022-10-31T04:17:25;7.88;;;1.80;;
75090;SDS011;63674;48.048;8.306;2022-10-31T04:19:59;15.35;;;2.22;;
75090;SDS011;63674;48.048;8.306;2022-10-31T04:22:29;8.40;;;1.70;;
75090;SDS011;63674;48.048;8.306;2022-10-31T04:24:57;7.70;;;1.40;;
75090;SDS011;63674;48.048;8.306;2022-10-31T04:27:26;10.45;;;1.45;;
75090;SDS011;63674;48.048;8.306;2022-10-31T04:29:54;7.95;;;1.42;;
75090;SDS011;63674;48.048;8.306;2022-10-31T04:32:23;7.60;;;1.25;;
75090;SDS011;63674;48.048;8.306;2022-10-31T04:34:51;6.47;;;1.48;;
75090;SDS011;63674;48.048;8.306;2022-10-31T04:37:20;8.13;;;1.83;;
75090;SDS011;63674;48.048;8.306;2022-10-31T04:39:50;5.50;;;1.30;;
75090;SDS011;63674;48.048;8.306;2022-10-31T04:42:18;7.25;;;1.58;;
75090;SDS011;63674;48.048;8.306;2022-10-31T04:44:47;6.20;;;1.98;;
75090;SDS011;63674;48.048;8.306;2022-10-31T04:47:15;6.15;;;1.30;;
75090;SDS011;63674;48.048;8.306;2022-10-31T04:49:44;6.28;;;1.30;;
75090;SDS011;63674;48.048;8.306;2022-10-31T04:52:12;6.97;;;1.73;;
75090;SDS011;63674;48.048;8.306;2022-10-31T04:54:41;5.75;;;1.63;;
75090;SDS011;63674;48.048;8.306;2022-10-31T04:57:11;5.60;;;1.48;;
75090;SDS011;63674;48.048;8.306;2022-10-31T04:59:39;4.78;;;1.50;;
75090;SDS011;63674;48.048;8.306;2022-10-31T05:02:08;5.38;;;1.60;;
75090;SDS011;63674;48.048;8.306;2022-10-31T05:04:37;8.63;;;1.70;;
75090;SDS011;63674;48.048;8.306;2022-10-31T05:07:05;9.02;;;1.80;;
75090;SDS011;63674;48.048;8.306;2022-10-31T05:09:34;6.10;;;1.60;;
75090;SDS011;63674;48.048;8.306;2022-10-31T05:12:02;7.10;;;1.60;;
75090;SDS011;63674;48.048;8.306;2022-10-31T05:14:33;5.80;;;1.60;;
75090;SDS011;63674;48.048;8.306;2022-10-31T05:17:01;6.15;;;1.30;;
75090;SDS011;63674;48.048;8.306;2022-10-31T05:19:30;7.13;;;1.92;;
75090;SDS011;63674;48.048;8.306;2022-10-31T05:21:58;8.48;;;1.55;;
75090;SDS011;63674;48.048;8.306;2022-10-31T05:24:27;6.90;;;1.80;;
75090;SDS011;63674;48.048;8.306;2022-10-31T05:26:55;7.57;;;1.50;;
75090;SDS011;63674;48.048;8.306;2022-10-31T05:29:24;5.05;;;1.67;;
75090;SDS011;63674;48.048;8.306;2022-10-31T05:31:54;6.43;;;1.90;;
75090;SDS011;63674;48.048;8.306;2022-10-31T05:34:22;6.38;;;1.50;;
75090;SDS011;63674;48.048;8.306;2022-10-31T05:36:51;5.53;;;1.50;;
75090;SDS011;63674;48.048;8.306;2022-10-31T05:39:19;9.32;;;1.52;;
75090;SDS011;63674;48.048;8.306;2022-10-31T05:41:48;5.95;;;1.50;;
75090;SDS011;63674;48.048;8.306;2022-10-31T05:44:16;10.70;;;1.88;;
75090;SDS011;63674;48.048;8.306;2022-10-31T05:46:45;5.32;;;1.30;;
75090;SDS011;63674;48.048;8.306;2022-10-31T05:49:16;8.00;;;1.60;;
75090;SDS011;63674;48.048;8.306;2022-10-31T05:51:44;7.50;;;1.67;;
75090;SDS011;63674;48.048;8.306;2022-10-31T05:54:13;9.95;;;1.42;;
75090;SDS011;63674;48.048;8.306;2022-10-31T05:56:41;12.13;;;1.85;;
75090;SDS011;63674;48.048;8.306;2022-10-31T05:59:10;5.18;;;1.58;;
75090;SDS011;63674;48.048;8.306;2022-10-31T06:01:39;7.80;;;2.20;;
75090;SDS011;63674;48.048;8.306;2022-10-31T06:04:07;8.43;;;2.33;;
75090;SDS011;63674;48.048;8.306;2022-10-31T06:06:37;10.32;;;2.10;;
75090;SDS011;63674;48.048;8.306;2022-10-31T06:09:06;6.78;;;2.03;;
75090;SDS011;63674;48.048;8.306;2022-10-31T06:11:35;8.93;;;2.20;;
75090;SDS011;63674;48.048;8.306;2022-10-31T06:14:03;6.35;;;2.30;;
75090;SDS011;63674;48.048;8.306;2022-10-31T06:16:32;7.30;;;2.63;;
75090;SDS011;63674;48.048;8.306;2022-10-31T06:19:01;9.20;;;2.55;;
75090;SDS011;63674;48.048;8.306;2022-10-31T06:21:29;7.20;;;2.60;;
75090;SDS011;63674;48.048;8.306;2022-10-31T06:23:59;6.88;;;2.55;;
75090;SDS011;63674;48.048;8.306;2022-10-31T06:26:28;8.02;;;2.30;;
75090;SDS011;63674;48.048;8.306;2022-10-31T06:28:56;7.03;;;2.28;;
75090;SDS011;63674;48.048;8.306;2022-10-31T06:31:29;8.73;;;2.15;;
75090;SDS011;63674;48.048;8.306;2022-10-31T06:33:58;7.30;;;2.22;;
75090;SDS011;63674;48.048;8.306;2022-10-31T06:36:26;8.23;;;2.25;;
75090;SDS011;63674;48.048;8.306;2022-10-31T06:38:54;8.75;;;2.33;;
75090;SDS011;63674;48.048;8.306;2022-10-31T06:41:24;8.63;;;2.45;;
75090;SDS011;63674;48.048;8.306;2022-10-31T06:43:53;8.25;;;2.42;;
75090;SDS011;63674;48.048;8.306;2022-10-31T06:46:21;7.72;;;2.35;;
75090;SDS011;63674;48.048;8.306;2022-10-31T06:48:50;7.00;;;2.28;;
75090;SDS011;63674;48.048;8.306;2022-10-31T06:51:18;9.52;;;2.50;;
75090;SDS011;63674;48.048;8.306;2022-10-31T06:53:47;10.63;;;2.50;;
75090;SDS011;63674;48.048;8.306;2022-10-31T06:56:16;9.30;;;2.42;;
75090;SDS011;63674;48.048;8.306;2022-10-31T06:58:45;9.60;;;2.40;;
75090;SDS011;63674;48.048;8.306;2022-10-31T07:01:14;8.52;;;2.53;;
75090;SDS011;63674;48.048;8.306;2022-10-31T07:03:43;11.73;;;2.35;;
75090;SDS011;63674;48.048;8.306;2022-10-31T07:06:11;9.63;;;2.50;;
75090;SDS011;63674;48.048;8.306;2022-10-31T07:08:40;8.38;;;2.45;;
75090;SDS011;63674;48.048;8.306;2022-10-31T07:11:09;10.50;;;2.60;;
75090;SDS011;63674;48.048;8.306;2022-10-31T07:13:37;8.32;;;2.25;;
75090;SDS011;63674;48.048;8.306;2022-10-31T07:16:07;7.53;;;2.40;;
75090;SDS011;63674;48.048;8.306;2022-10-31T07:18:38;8.82;;;3.33;;
75090;SDS011;63674;48.048;8.306;2022-10-31T07:21:07;9.73;;;3.00;;
75090;SDS011;63674;48.048;8.306;2022-10-31T07:23:36;8.65;;;3.13;;
75090;SDS011;63674;48.048;8.306;2022-10-31T07:26:04;10.98;;;3.30;;
75090;SDS011;63674;48.048;8.306;2022-10-31T07:28:33;7.43;;;2.72;;
75090;SDS011;63674;48.048;8.306;2022-10-31T07:31:01;7.53;;;2.73;;
75090;SDS011;63674;48.048;8.306;2022-10-31T07:33:32;10.23;;;3.20;;
75090;SDS011;63674;48.048;8.306;2022-10-31T07:36:01;8.05;;;3.35;;
75090;SDS011;63674;48.048;8.306;2022-10-31T07:38:29;9.35;;;3.28;;
75090;SDS011;63674;48.048;8.306;2022-10-31T07:40:58;12.82;;;3.75;;
75090;SDS011;63674;48.048;8.306;2022-10-31T07:43:26;7.70;;;3.40;;
75090;SDS011;63674;48.048;8.306;2022-10-31T07:45:55;10.15;;;3.20;;
75090;SDS011;63674;48.048;8.306;2022-10-31T07:48:23;10.65;;;4.00;;
75090;SDS011;63674;48.048;8.306;2022-10-31T07:50:54;13.60;;;5.25;;
75090;SDS011;63674;48.048;8.306;2022-10-31T07:53:23;14.75;;;6.57;;
75090;SDS011;63674;48.048;8.306;2022-10-31T07:55:51;14.13;;;5.72;;
75090;SDS011;63674;48.048;8.306;2022-10-31T07:58:20;12.40;;;5.20;;
75090;SDS011;63674;48.048;8.306;2022-10-31T08:00:48;15.63;;;6.03;;
75090;SDS011;63674;48.048;8.306;2022-10-31T08:03:18;13.82;;;6.70;;
75090;SDS011;63674;48.048;8.306;2022-10-31T08:05:47;19.30;;;6.82;;
75090;SDS011;63674;48.048;8.306;2022-10-31T08:08:28;11.77;;;4.77;;
75090;SDS011;63674;48.048;8.306;2022-10-31T08:11:01;10.82;;;4.00;;
75090;SDS011;63674;48.048;8.306;2022-10-31T08:13:30;12.45;;;4.63;;
75090;SDS011;63674;48.048;8.306;2022-10-31T08:15:58;9.85;;;3.50;;
75090;SDS011;63674;48.048;8.306;2022-10-31T08:18:30;11.98;;;4.03;;
75090;SDS011;63674;48.048;8.306;2022-10-31T08:20:58;10.97;;;4.03;;
75090;SDS011;63674;48.048;8.306;2022-10-31T08:23:29;10.48;;;3.72;;
75090;SDS011;63674;48.048;8.306;2022-10-31T08:25:57;10.30;;;4.28;;
75090;SDS011;63674;48.048;8.306;2022-10-31T08:28:26;10.57;;;4.20;;
75090;SDS011;63674;48.048;8.306;2022-10-31T08:30:54;13.57;;;5.75;;
75090;SDS011;63674;48.048;8.306;2022-10-31T08:33:25;12.07;;;5.03;;
75090;SDS011;63674;48.048;8.306;2022-10-31T08:35:54;10.77;;;4.15;;
75090;SDS011;63674;48.048;8.306;2022-10-31T08:38:25;9.95;;;3.35;;
75090;SDS011;63674;48.048;8.306;2022-10-31T08:40:55;9.95;;;3.85;;
75090;SDS011;63674;48.048;8.306;2022-10-31T08:43:23;12.23;;;4.05;;
75090;SDS011;63674;48.048;8.306;2022-10-31T08:45:52;12.70;;;3.90;;
75090;SDS011;63674;48.048;8.306;2022-10-31T08:48:21;10.38;;;3.75;;
75090;SDS011;63674;48.048;8.306;2022-10-31T08:50:50;8.02;;;3.67;;
75090;SDS011;63674;48.048;8.306;2022-10-31T08:53:18;9.48;;;4.40;;
75090;SDS011;63674;48.048;8.306;2022-10-31T08:55:48;10.63;;;4.85;;
75090;SDS011;63674;48.048;8.306;2022-10-31T08:58:19;11.77;;;4.60;;
75090;SDS011;63674;48.048;8.306;2022-10-31T09:00:49;9.32;;;3.20;;
75090;SDS011;63674;48.048;8.306;2022-10-31T09:03:20;8.20;;;3.33;;
75090;SDS011;63674;48.048;8.306;2022-10-31T09:05:54;8.73;;;2.97;;
75090;SDS011;63674;48.048;8.306;2022-10-31T09:08:24;7.80;;;3.28;;
75090;SDS011;63674;48.048;8.306;2022-10-31T09:10:55;8.07;;;3.23;;
75090;SDS011;63674;48.048;8.306;2022-10-31T09:13:26;7.07;;;3.13;;
75090;SDS011;63674;48.048;8.306;2022-10-31T09:15:56;10.90;;;3.58;;
75090;SDS011;63674;48.048;8.306;2022-10-31T09:18:25;8.25;;;3.10;;
75090;SDS011;63674;48.048;8.306;2022-10-31T09:20:56;10.00;;;3.10;;
75090;SDS011;63674;48.048;8.306;2022-10-31T09:23:26;8.57;;;3.20;;
75090;SDS011;63674;48.048;8.306;2022-10-31T09:25:55;8.88;;;2.60;;
75090;SDS011;63674;48.048;8.306;2022-10-31T09:28:28;8.45;;;2.72;;
75090;SDS011;63674;48.048;8.306;2022-10-31T09:30:58;9.93;;;2.90;;
75090;SDS011;63674;48.048;8.306;2022-10-31T09:33:26;9.57;;;3.10;;
75090;SDS011;63674;48.048;8.306;2022-10-31T09:35:55;10.57;;;3.50;;
75090;SDS011;63674;48.048;8.306;2022-10-31T09:38:26;7.75;;;2.92;;
75090;SDS011;63674;48.048;8.306;2022-10-31T09:40:55;9.73;;;2.97;;
75090;SDS011;63674;48.048;8.306;2022-10-31T09:43:47;13.07;;;3.88;;
75090;SDS011;63674;48.048;8.306;2022-10-31T09:46:25;8.68;;;2.88;;
75090;SDS011;63674;48.048;8.306;2022-10-31T09:52:09;9.68;;;2.80;;
75090;SDS011;63674;48.048;8.306;2022-10-31T09:54:49;11.23;;;2.95;;
75090;SDS011;63674;48.048;8.306;2022-10-31T09:57:28;9.88;;;3.53;;
75090;SDS011;63674;48.048;8.306;2022-10-31T10:00:03;8.80;;;2.80;;
75090;SDS011;63674;48.048;8.306;2022-10-31T10:02:37;11.07;;;3.03;;
75090;SDS011;63674;48.048;8.306;2022-10-31T10:05:14;14.18;;;3.40;;
75090;SDS011;63674;48.048;8.306;2022-10-31T10:07:53;9.05;;;2.67;;
75090;SDS011;63674;48.048;8.306;2022-10-31T10:10:32;12.18;;;2.75;;
75090;SDS011;63674;48.048;8.306;2022-10-31T10:13:18;11.00;;;3.05;;
75090;SDS011;63674;48.048;8.306;2022-10-31T10:16:19;11.83;;;4.00;;
75090;SDS011;63674;48.048;8.306;2022-10-31T10:19:07;10.38;;;3.03;;
75090;SDS011;63674;48.048;8.306;2022-10-31T10:21:55;11.45;;;3.50;;
75090;SDS011;63674;48.048;8.306;2022-10-31T10:24:40;8.63;;;2.80;;
75090;SDS011;63674;48.048;8.306;2022-10-31T10:27:29;13.40;;;3.55;;
75090;SDS011;63674;48.048;8.306;2022-10-31T10:30:15;9.47;;;3.50;;
75090;SDS011;63674;48.048;8.306;2022-10-31T10:32:49;10.13;;;3.40;;
75090;SDS011;63674;48.048;8.306;2022-10-31T10:35:23;10.80;;;3.60;;
75090;SDS011;63674;48.048;8.306;2022-10-31T10:38:07;8.52;;;3.20;;
75090;SDS011;63674;48.048;8.306;2022-10-31T10:40:43;7.85;;;2.90;;
75090;SDS011;63674;48.048;8.306;2022-10-31T10:43:22;9.50;;;3.50;;
75090;SDS011;63674;48.048;8.306;2022-10-31T10:49:06;10.55;;;3.22;;
75090;SDS011;63674;48.048;8.306;2022-10-31T10:51:45;11.18;;;3.42;;
75090;SDS011;63674;48.048;8.306;2022-10-31T10:54:49;9.90;;;3.08;;
75090;SDS011;63674;48.048;8.306;2022-10-31T10:57:32;9.63;;;2.93;;
75090;SDS011;63674;48.048;8.306;2022-10-31T11:00:21;8.70;;;2.67;;
75090;SDS011;63674;48.048;8.306;2022-10-31T11:02:52;8.27;;;2.72;;
75090;SDS011;63674;48.048;8.306;2022-10-31T11:05:30;9.48;;;3.40;;
75090;SDS011;63674;48.048;8.306;2022-10-31T11:08:05;9.95;;;3.30;;
75090;SDS011;63674;48.048;8.306;2022-10-31T11:10:34;8.80;;;3.50;;
75090;SDS011;63674;48.048;8.306;2022-10-31T11:13:05;10.73;;;3.40;;
75090;SDS011;63674;48.048;8.306;2022-10-31T11:15:51;9.85;;;3.30;;
75090;SDS011;63674;48.048;8.306;2022-10-31T11:18:25;9.73;;;3.10;;
75090;SDS011;63674;48.048;8.306;2022-10-31T11:20:59;12.75;;;3.75;;
75090;SDS011;63674;48.048;8.306;2022-10-31T11:23:30;8.80;;;3.13;;
75090;SDS011;63674;48.048;8.306;2022-10-31T11:26:01;10.05;;;2.90;;
75090;SDS011;63674;48.048;8.306;2022-10-31T11:28:32;11.90;;;4.38;;
75090;SDS011;63674;48.048;8.306;2022-10-31T11:31:05;10.63;;;3.90;;
75090;SDS011;63674;48.048;8.306;2022-10-31T11:33:39;10.73;;;4.28;;
75090;SDS011;63674;48.048;8.306;2022-10-31T11:36:18;8.80;;;3.50;;
75090;SDS011;63674;48.048;8.306;2022-10-31T11:38:51;13.52;;;5.00;;
75090;SDS011;63674;48.048;8.306;2022-10-31T11:41:24;13.35;;;5.45;;
75090;SDS011;63674;48.048;8.306;2022-10-31T11:43:58;21.13;;;6.78;;
75090;SDS011;63674;48.048;8.306;2022-10-31T11:46:30;15.48;;;7.00;;
75090;SDS011;63674;48.048;8.306;2022-10-31T11:49:13;14.10;;;5.90;;
75090;SDS011;63674;48.048;8.306;2022-10-31T11:51:49;13.20;;;4.72;;
75090;SDS011;63674;48.048;8.306;2022-10-31T11:54:22;13.48;;;4.82;;
75090;SDS011;63674;48.048;8.306;2022-10-31T11:56:56;11.75;;;5.13;;
75090;SDS011;63674;48.048;8.306;2022-10-31T11:59:26;15.35;;;4.30;;
75090;SDS011;63674;48.048;8.306;2022-10-31T12:01:58;8.73;;;4.03;;
75090;SDS011;63674;48.048;8.306;2022-10-31T12:04:34;13.60;;;4.80;;
75090;SDS011;63674;48.048;8.306;2022-10-31T12:07:12;10.48;;;4.45;;
75090;SDS011;63674;48.048;8.306;2022-10-31T12:09:41;10.85;;;4.40;;
75090;SDS011;63674;48.048;8.306;2022-10-31T12:12:12;11.40;;;4.28;;
75090;SDS011;63674;48.048;8.306;2022-10-31T12:18:21;11.98;;;2.50;;
75090;SDS011;63674;48.048;8.306;2022-10-31T12:21:07;9.55;;;2.20;;
75090;SDS011;63674;48.048;8.306;2022-10-31T12:23:56;8.93;;;2.70;;
75090;SDS011;63674;48.048;8.306;2022-10-31T12:26:38;9.00;;;2.28;;
75090;SDS011;63674;48.048;8.306;2022-10-31T12:29:22;7.97;;;2.73;;
75090;SDS011;63674;48.048;8.306;2022-10-31T12:32:21;7.80;;;2.33;;
75090;SDS011;63674;48.048;8.306;2022-10-31T12:44:19;8.63;;;2.57;;
75090;SDS011;63674;48.048;8.306;2022-10-31T12:50:50;9.15;;;2.20;;
75090;SDS011;63674;48.048;8.306;2022-10-31T12:53:38;8.55;;;2.08;;
75090;SDS011;63674;48.048;8.306;2022-10-31T12:56:35;8.45;;;1.95;;
75090;SDS011;63674;48.048;8.306;2022-10-31T12:59:20;9.43;;;2.10;;
75090;SDS011;63674;48.048;8.306;2022-10-31T13:01:59;8.77;;;1.92;;
75090;SDS011;63674;48.048;8.306;2022-10-31T13:04:40;7.40;;;2.00;;
75090;SDS011;63674;48.048;8.306;2022-10-31T13:07:17;6.75;;;1.60;;
75090;SDS011;63674;48.048;8.306;2022-10-31T13:09:54;5.57;;;1.70;;
75090;SDS011;63674;48.048;8.306;2022-10-31T13:12:33;10.03;;;2.23;;
75090;SDS011;63674;48.048;8.306;2022-10-31T13:15:04;8.93;;;2.00;;
75090;SDS011;63674;48.048;8.306;2022-10-31T13:17:43;7.15;;;1.90;;
75090;SDS011;63674;48.048;8.306;2022-10-31T13:20:20;10.70;;;1.70;;
75090;SDS011;63674;48.048;8.306;2022-10-31T13:22:55;5.22;;;1.40;;
75090;SDS011;63674;48.048;8.306;2022-10-31T13:25:55;6.37;;;1.90;;
75090;SDS011;63674;48.048;8.306;2022-10-31T13:28:29;10.82;;;2.00;;
75090;SDS011;63674;48.048;8.306;2022-10-31T13:31:09;8.18;;;1.77;;
75090;SDS011;63674;48.048;8.306;2022-10-31T13:33:39;6.57;;;1.77;;
75090;SDS011;63674;48.048;8.306;2022-10-31T13:36:17;7.25;;;1.67;;
75090;SDS011;63674;48.048;8.306;2022-10-31T13:38:57;7.60;;;1.87;;
75090;SDS011;63674;48.048;8.306;2022-10-31T13:41:39;8.02;;;1.70;;
75090;SDS011;63674;48.048;8.306;2022-10-31T13:44:17;8.10;;;1.83;;
75090;SDS011;63674;48.048;8.306;2022-10-31T13:46:50;9.20;;;1.80;;
75090;SDS011;63674;48.048;8.306;2022-10-31T13:49:25;8.48;;;1.80;;
75090;SDS011;63674;48.048;8.306;2022-10-31T13:52:11;10.30;;;1.57;;
75090;SDS011;63674;48.048;8.306;2022-10-31T13:54:50;10.43;;;1.70;;
75090;SDS011;63674;48.048;8.306;2022-10-31T13:57:26;9.55;;;1.50;;
75090;SDS011;63674;48.048;8.306;2022-10-31T14:00:04;15.57;;;2.00;;
75090;SDS011;63674;48.048;8.306;2022-10-31T14:02:51;8.52;;;1.50;;
75090;SDS011;63674;48.048;8.306;2022-10-31T14:05:23;11.00;;;2.30;;
75090;SDS011;63674;48.048;8.306;2022-10-31T14:07:55;7.90;;;1.80;;
75090;SDS011;63674;48.048;8.306;2022-10-31T14:10:29;7.75;;;1.80;;
75090;SDS011;63674;48.048;8.306;2022-10-31T14:13:03;5.75;;;1.60;;
75090;SDS011;63674;48.048;8.306;2022-10-31T14:15:38;7.45;;;2.20;;
75090;SDS011;63674;48.048;8.306;2022-10-31T14:18:21;7.17;;;2.20;;
75090;SDS011;63674;48.048;8.306;2022-10-31T14:20:52;8.77;;;2.28;;
75090;SDS011;63674;48.048;8.306;2022-10-31T14:23:35;9.63;;;2.28;;
75090;SDS011;63674;48.048;8.306;2022-10-31T14:26:17;11.15;;;2.60;;
75090;SDS011;63674;48.048;8.306;2022-10-31T14:31:54;11.63;;;2.97;;
75090;SDS011;63674;48.048;8.306;2022-10-31T14:34:29;7.90;;;2.65;;
75090;SDS011;63674;48.048;8.306;2022-10-31T14:37:10;7.55;;;1.73;;
75090;SDS011;63674;48.048;8.306;2022-10-31T14:40:01;8.18;;;1.95;;
75090;SDS011;63674;48.048;8.306;2022-10-31T14:43:01;6.90;;;1.65;;
75090;SDS011;63674;48.048;8.306;2022-10-31T14:45:49;7.40;;;1.43;;
75090;SDS011;63674;48.048;8.306;2022-10-31T14:48:41;7.53;;;1.80;;
75090;SDS011;63674;48.048;8.306;2022-10-31T14:51:28;8.20;;;1.90;;
75090;SDS011;63674;48.048;8.306;2022-10-31T14:54:06;12.15;;;1.60;;
75090;SDS011;63674;48.048;8.306;2022-10-31T14:56:49;13.02;;;1.70;;
75090;SDS011;63674;48.048;8.306;2022-10-31T14:59:24;13.80;;;2.10;;
75090;SDS011;63674;48.048;8.306;2022-10-31T15:01:59;8.93;;;1.80;;
75090;SDS011;63674;48.048;8.306;2022-10-31T15:04:39;14.55;;;2.38;;
75090;SDS011;63674;48.048;8.306;2022-10-31T15:07:12;9.75;;;1.83;;
75090;SDS011;63674;48.048;8.306;2022-10-31T15:09:56;10.43;;;1.90;;
75090;SDS011;63674;48.048;8.306;2022-10-31T15:12:28;15.00;;;2.10;;
75090;SDS011;63674;48.048;8.306;2022-10-31T15:15:10;14.00;;;1.90;;
75090;SDS011;63674;48.048;8.306;2022-10-31T15:17:41;12.00;;;2.15;;
75090;SDS011;63674;48.048;8.306;2022-10-31T15:20:19;13.20;;;2.00;;
75090;SDS011;63674;48.048;8.306;2022-10-31T15:22:50;11.40;;;1.90;;
75090;SDS011;63674;48.048;8.306;2022-10-31T15:25:22;10.93;;;1.83;;
75090;SDS011;63674;48.048;8.306;2022-10-31T15:27:54;9.30;;;2.05;;
75090;SDS011;63674;48.048;8.306;2022-10-31T15:30:24;9.93;;;1.80;;
75090;SDS011;63674;48.048;8.306;2022-10-31T15:32:55;9.55;;;1.80;;
75090;SDS011;63674;48.048;8.306;2022-10-31T15:35:26;11.68;;;1.88;;
75090;SDS011;63674;48.048;8.306;2022-10-31T15:37:58;16.13;;;2.07;;
75090;SDS011;63674;48.048;8.306;2022-10-31T15:40:28;12.63;;;1.95;;
75090;SDS011;63674;48.048;8.306;2022-10-31T15:42:57;10.82;;;2.10;;
75090;SDS011;63674;48.048;8.306;2022-10-31T15:45:29;9.23;;;1.92;;
75090;SDS011;63674;48.048;8.306;2022-10-31T15:47:59;9.25;;;1.85;;
75090;SDS011;63674;48.048;8.306;2022-10-31T15:50:34;8.43;;;1.93;;
75090;SDS011;63674;48.048;8.306;2022-10-31T15:53:13;9.90;;;1.98;;
75090;SDS011;63674;48.048;8.306;2022-10-31T15:55:48;7.53;;;1.85;;